Map

Track Data

SID SEASON NUMBER BASIN SUBBASIN NAME ISO_TIME NATURE LAT LON WMO_WIND WMO_PRES WMO_AGENCY TRACK_TYPE DIST2LAND LANDFALL IFLAG USA_AGENCY USA_ATCF_ID USA_LAT USA_LON USA_RECORD USA_STATUS USA_WIND USA_PRES USA_SSHS USA_R34_NE USA_R34_SE USA_R34_SW USA_R34_NW USA_R50_NE USA_R50_SE USA_R50_SW USA_R50_NW USA_R64_NE USA_R64_SE USA_R64_SW USA_R64_NW USA_POCI USA_ROCI USA_RMW USA_EYE TOKYO_LAT TOKYO_LON TOKYO_GRADE TOKYO_WIND TOKYO_PRES TOKYO_R50_DIR TOKYO_R50_LONG TOKYO_R50_SHORT TOKYO_R30_DIR TOKYO_R30_LONG TOKYO_R30_SHORT TOKYO_LAND CMA_LAT CMA_LON CMA_CAT CMA_WIND CMA_PRES HKO_LAT HKO_LON HKO_CAT HKO_WIND HKO_PRES NEWDELHI_LAT NEWDELHI_LON NEWDELHI_GRADE NEWDELHI_WIND NEWDELHI_PRES NEWDELHI_CI NEWDELHI_DP NEWDELHI_POCI REUNION_LAT REUNION_LON REUNION_TYPE REUNION_WIND REUNION_PRES REUNION_TNUM REUNION_CI REUNION_RMW REUNION_R34_NE REUNION_R34_SE REUNION_R34_SW REUNION_R34_NW REUNION_R50_NE REUNION_R50_SE REUNION_R50_SW REUNION_R50_NW REUNION_R64_NE REUNION_R64_SE REUNION_R64_SW REUNION_R64_NW BOM_LAT BOM_LON BOM_TYPE BOM_WIND BOM_PRES BOM_TNUM BOM_CI BOM_RMW BOM_R34_NE BOM_R34_SE BOM_R34_SW BOM_R34_NW BOM_R50_NE BOM_R50_SE BOM_R50_SW BOM_R50_NW BOM_R64_NE BOM_R64_SE BOM_R64_SW BOM_R64_NW BOM_ROCI BOM_POCI BOM_EYE BOM_POS_METHOD BOM_PRES_METHOD NADI_LAT NADI_LON NADI_CAT NADI_WIND NADI_PRES WELLINGTON_LAT WELLINGTON_LON WELLINGTON_WIND WELLINGTON_PRES DS824_LAT DS824_LON DS824_STAGE DS824_WIND DS824_PRES TD9636_LAT TD9636_LON TD9636_STAGE TD9636_WIND TD9636_PRES TD9635_LAT TD9635_LON TD9635_WIND TD9635_PRES TD9635_ROCI NEUMANN_LAT NEUMANN_LON NEUMANN_CLASS NEUMANN_WIND NEUMANN_PRES MLC_LAT MLC_LON MLC_CLASS MLC_WIND MLC_PRES USA_GUST BOM_GUST BOM_GUST_PER REUNION_GUST REUNION_GUST_PER USA_SEAHGT USA_SEARAD_NE USA_SEARAD_SE USA_SEARAD_SW USA_SEARAD_NW STORM_SPEED STORM_DIR
1939023S20043 1939 9 SI MM NOT_NAMED 1939-01-23 09:00:00 NR -20.3832 42.8477 spur-other 122 106 ______________ -1 4 166
1939023S20043 1939 9 SI MM NOT_NAMED 1939-01-23 12:00:00 NR -20.5709 42.8990 spur-other 106 84 ______________ -1 4 166
1939023S20043 1939 9 SI MM NOT_NAMED 1939-01-23 15:00:00 NR -20.7650 42.9541 spur-other 84 68 ______________ -1 4 166
1939023S20043 1939 9 SI MM NOT_NAMED 1939-01-23 18:00:00 NR -20.9675 43.0134 spur-other 68 47 ______________ -1 4 165
1939023S20043 1939 9 SI MM NOT_NAMED 1939-01-23 21:00:00 NR -21.1803 43.0773 spur-other 47 41 ______________ -1 5 164
1939023S20043 1939 9 SI MM NOT_NAMED 1939-01-24 00:00:00 NR -21.4053 43.1461 spur-other 41 30 ______________ -1 5 164
1939023S20043 1939 9 SI MM NOT_NAMED 1939-01-24 03:00:00 NR -21.6446 43.2202 spur-other 30 10 ______________ -1 5 164
1939023S20043 1939 9 SI MM NOT_NAMED 1939-01-24 06:00:00 NR -21.9000 43.3000 reunion spur-other 10 0 _____O________ -1 -21.9000 43.3000 99 9.90000 5 164
1939023S20043 1939 9 SI MM NOT_NAMED 1939-01-24 09:00:00 NR -22.1677 43.3805 spur-other 0 0 _____P________ -1 -22.1983 43.4089 99 6 165
1939023S20043 1939 9 SI MM NOT_NAMED 1939-01-24 12:00:00 NR -22.4513 43.4667 spur-other 0 0 _____P________ -1 -22.4979 43.5172 99 6 164
1939023S20043 1939 9 SI MM NOT_NAMED 1939-01-24 15:00:00 NR -22.7493 43.5586 spur-other 0 0 _____P________ -1 -22.8002 43.6240 99 6 164
1939023S20043 1939 9 SI MM NOT_NAMED 1939-01-24 18:00:00 NR -23.0600 43.6559 spur-other 0 0 _____P________ -1 -23.1066 43.7283 99 7 164
1939023S20043 1939 9 SI MM NOT_NAMED 1939-01-24 21:00:00 NR -23.3821 43.7588 spur-other 0 0 _____P________ -1 -23.4183 43.8290 99 7 163
1939023S20043 1939 9 SI MM NOT_NAMED 1939-01-25 00:00:00 NR -23.7138 43.8671 spur-other 0 0 _____P________ -1 -23.7369 43.9253 99 7 163
1939023S20043 1939 9 SI MM NOT_NAMED 1939-01-25 03:00:00 NR -24.0536 43.9809 spur-other 0 0 _____P________ -1 -24.0637 44.0159 99 7 163
1939023S20043 1939 9 SI MM NOT_NAMED 1939-01-25 06:00:00 NR -24.4000 44.1000 reunion spur-other 0 0 _____O________ -1 -24.4000 44.1000 99 9.90000 7 165
1939023S20043 1939 9 SI MM NOT_NAMED 1939-01-25 09:00:00 NR -24.7467 44.1780 spur-other 0 0 _____P________ -1 -24.7467 44.1780 99 7 169
1939023S20043 1939 9 SI MM NOT_NAMED 1939-01-25 12:00:00 NR -25.1023 44.2564 spur-other 0 0 _____P________ -1 -25.1023 44.2564 99 7 168
1939023S20043 1939 9 SI MM NOT_NAMED 1939-01-25 15:00:00 NR -25.4645 44.3435 spur-other 24 22 _____P________ -1 -25.4645 44.3435 99 8 167
1939023S20043 1939 9 SI MM NOT_NAMED 1939-01-25 18:00:00 NR -25.8314 44.4474 spur-other 55 55 _____P________ -1 -25.8314 44.4474 99 8 164
1939023S20043 1939 9 SI MM NOT_NAMED 1939-01-25 21:00:00 NR -26.2005 44.5765 spur-other 87 87 _____P________ -1 -26.2005 44.5765 99 8 161
1939023S20043 1939 9 SI MM NOT_NAMED 1939-01-26 00:00:00 NR -26.5699 44.7392 spur-other 122 118 _____P________ -1 -26.5699 44.7392 99 8 156
1939023S20043 1939 9 SI MM NOT_NAMED 1939-01-26 03:00:00 NR -26.9371 44.9442 spur-other 148 148 _____P________ -1 -26.9371 44.9442 99 8 151
1939023S20043 1939 9 SI MM NOT_NAMED 1939-01-26 06:00:00 NR -27.3000 45.2000 reunion spur-other 189 189 _____O________ -1 -27.3000 45.2000 99 9.90000 9 144
1939023S20043 1939 9 SI MM NOT_NAMED 1939-01-26 09:00:00 NR -27.6496 45.5254 spur-other 223 223 _____P________ -1 -27.6496 45.5254 99 9 138
1939023S20043 1939 9 SI MM NOT_NAMED 1939-01-26 12:00:00 NR -27.9951 45.9031 spur-other 270 270 _____P________ -1 -27.9951 45.9031 99 10 134
1939023S20043 1939 9 SI MM NOT_NAMED 1939-01-26 15:00:00 NR -28.3367 46.3247 spur-other 311 311 _____P________ -1 -28.3367 46.3247 99 10 131
1939023S20043 1939 9 SI MM NOT_NAMED 1939-01-26 18:00:00 NR -28.6746 46.7820 spur-other 369 369 _____P________ -1 -28.6746 46.7820 99 11 129
1939023S20043 1939 9 SI MM NOT_NAMED 1939-01-26 21:00:00 NR -29.0094 47.2668 spur-other 419 419 _____P________ -1 -29.0094 47.2668 99 11 128
1939023S20043 1939 9 SI MM NOT_NAMED 1939-01-27 00:00:00 NR -29.3415 47.7704 spur-other 468 468 _____P________ -1 -29.3415 47.7704 99 11 127
1939023S20043 1939 9 SI MM NOT_NAMED 1939-01-27 03:00:00 NR -29.6714 48.2843 spur-other 523 523 _____P________ -1 -29.6714 48.2843 99 11 126
1939023S20043 1939 9 SI MM NOT_NAMED 1939-01-27 06:00:00 NR -30.0000 48.8000 reunion spur-other 570 570 _____O________ -1 -30.0000 48.8000 99 9.90000 11 126
1939023S20043 1939 9 SI MM NOT_NAMED 1939-01-27 09:00:00 NR -30.3280 49.3104 spur-other 620 620 _____P________ -1 -30.3280 49.3104 99 11 127
1939023S20043 1939 9 SI MM NOT_NAMED 1939-01-27 12:00:00 NR -30.6554 49.8152 spur-other 680 680 _____P________ -1 -30.6554 49.8152 99 11 127
1939023S20043 1939 9 SI MM NOT_NAMED 1939-01-27 15:00:00 NR -30.9822 50.3158 spur-other 732 732 _____P________ -1 -30.9822 50.3158 99 11 127
1939023S20043 1939 9 SI MM NOT_NAMED 1939-01-27 18:00:00 NR -31.3082 50.8134 spur-other 785 785 _____P________ -1 -31.3082 50.8134 99 11 127
1939023S20043 1939 9 SI MM NOT_NAMED 1939-01-27 21:00:00 NR -31.6332 51.3093 spur-other 838 838 _____P________ -1 -31.6332 51.3093 99 11 128
1939023S20043 1939 9 SI MM NOT_NAMED 1939-01-28 00:00:00 NR -31.9570 51.8049 spur-other 901 901 _____P________ -1 -31.9570 51.8049 99 11 127
1939023S20043 1939 9 SI MM NOT_NAMED 1939-01-28 03:00:00 NR -32.2794 52.3014 spur-other 954 954 _____P________ -1 -32.2794 52.3014 99 11 127
1939023S20043 1939 9 SI MM NOT_NAMED 1939-01-28 06:00:00 NR -32.6000 52.8000 reunion spur-other 1009 _____O________ -1 -32.6000 52.8000 99 9.90000 11 127

About IBTrACS Database

This database is a web-friendly format of International Best Track Archive for Climate Stewardship (IBTrACS), a global best track data archive curated by NOAA dating back to 1842.

Updated: 2021-11-26